This is the latest recevied weather packets stored in our database for station/object CQ0XSM-11. If no packets are shown the sender has not sent any weather packets the latest 1 day(s).
| Time | Temp. | Humidity | Pressure | Rain* | Wind** | Luminosity | Snow |
|---|---|---|---|---|---|---|---|
| 1778098845 | 11.11° C | 83% | 991.4 hPa | 0 mm | - | - | - |
| 1778096711 | 11.67° C | 67% | 991.1 hPa | 0 mm | - | - | - |
| 1778096407 | 12.22° C | 65% | 991.1 hPa | 0 mm | - | - | - |
| 1778091258 | 15° C | 47% | 990.6 hPa | 0 mm | - | - | - |
| 1778090666 | 15° C | 46% | 990.6 hPa | 0 mm | - | - | - |
| 1778089755 | 15.56° C | 45% | 990.7 hPa | 0 mm | - | - | - |
| 1778088523 | 16.67° C | 42% | 990.7 hPa | 0 mm | - | - | - |
| 1778087956 | 17.22° C | 42% | 990.7 hPa | 0 mm | - | - | - |
| 1778087621 | 17.22° C | 42% | 990.8 hPa | 0 mm | - | - | - |
| 1778087035 | 16.67° C | 44% | 990.7 hPa | 0 mm | - | - | - |
| 1778085795 | 16.11° C | 42% | 990.8 hPa | 0 mm | - | - | - |
| 1778083065 | 17.78° C | 37% | 990.8 hPa | 0 mm | - | - | - |
| 1778082160 | 17.22° C | 36% | 990.9 hPa | 0 mm | - | - | - |
| 1778080655 | 17.78° C | 35% | 991.1 hPa | 0 mm | - | - | - |
| 1778080057 | 17.22° C | 37% | 991.3 hPa | 0 mm | - | - | - |
| 1778077946 | 18.33° C | 35% | 991.8 hPa | 0 mm | - | - | - |
| 1778077621 | 18.33° C | 33% | 991.8 hPa | 0 mm | - | - | - |
| 1778076403 | 17.22° C | 36% | 992.1 hPa | 0 mm | - | - | - |
| 1778075211 | 16.11° C | 38% | 992.3 hPa | 0 mm | - | - | - |
| 1778074591 | 16.67° C | 39% | 992.4 hPa | 0 mm | - | - | - |
| 1778074291 | 17.22° C | 37% | 992.4 hPa | 0 mm | - | - | - |
| 1778073689 | 17.22° C | 37% | 992.5 hPa | 0 mm | - | - | - |
| 1778073086 | 17.22° C | 38% | 992.7 hPa | 0 mm | - | - | - |
| 1778072172 | 17.22° C | 38% | 992.9 hPa | 0 mm | - | - | - |
| 1778071867 | 17.22° C | 38% | 992.8 hPa | 0 mm | - | - | - |
* Rain since midnight (hover to see other rain measurements)
** Current wind speed in m/s (hover to see current wind gust speed)